Time;durP1;ratioP1;P1;durP2;ratioP2;P2;SDS_P1;SDS_P2;PMS_P1;PMS_P2;Temp;Humidity;BMP_temperature;BMP_pressure;BME280_temperature;BME280_humidity;BME280_pressure;Samples;Min_cycle;Max_cycle;Signal;HPM_P1;HPM_P2
2022/12/07 00:01:15;;;;;;;20.73;17.93;;;;;;;3.53;100.00;96669.03;5021136;28;20223;-64
2022/12/07 00:03:44;;;;;;;20.87;18.03;;;;;;;3.47;100.00;96663.25;5021615;28;20203;-63
2022/12/07 00:06:13;;;;;;;23.77;18.23;;;;;;;3.50;100.00;96668.28;5011283;28;20210;-62
2022/12/07 00:08:40;;;;;;;21.13;17.67;;;;;;;3.55;100.00;96670.59;5010381;28;20208;-63
2022/12/07 00:11:09;;;;;;;22.40;18.43;;;;;;;3.58;100.00;96670.38;5011054;28;20636;-63
2022/12/07 00:13:36;;;;;;;23.60;18.93;;;;;;;3.55;100.00;96673.19;5010814;28;20644;-63
2022/12/07 00:16:04;;;;;;;19.80;16.90;;;;;;;3.57;100.00;96668.72;5001630;28;20228;-62
2022/12/07 00:18:30;;;;;;;21.80;17.83;;;;;;;3.56;100.00;96667.03;5011030;28;20216;-63
2022/12/07 00:21:00;;;;;;;22.57;18.83;;;;;;;3.57;100.00;96668.72;5011392;28;20220;-62
2022/12/07 00:23:27;;;;;;;21.60;18.30;;;;;;;3.62;100.00;96666.63;5018940;28;20213;-62
2022/12/07 00:25:54;;;;;;;21.40;18.00;;;;;;;3.59;100.00;96669.47;5020073;28;20232;-62
2022/12/07 00:28:21;;;;;;;23.40;18.63;;;;;;;3.64;100.00;96658.72;5014454;28;20211;-61
2022/12/07 00:30:48;;;;;;;23.23;18.87;;;;;;;3.63;100.00;96657.88;5014126;28;20205;-64
2022/12/07 00:33:14;;;;;;;23.33;19.20;;;;;;;3.66;100.00;96664.66;5021511;28;20200;-63
2022/12/07 00:35:41;;;;;;;25.23;19.60;;;;;;;3.63;100.00;96673.56;5025957;28;20232;-64
2022/12/07 00:38:07;;;;;;;22.87;20.03;;;;;;;3.61;100.00;96658.91;5011367;28;20280;-63
2022/12/07 00:40:34;;;;;;;21.30;18.17;;;;;;;3.61;100.00;96656.28;5013121;28;20648;-62
2022/12/07 00:43:00;;;;;;;23.83;18.97;;;;;;;3.65;100.00;96660.38;5014465;28;20196;-64
2022/12/07 00:45:28;;;;;;;24.27;19.43;;;;;;;3.61;100.00;96659.75;5014334;28;20208;-62
2022/12/07 00:47:55;;;;;;;22.53;19.27;;;;;;;3.62;100.00;96661.41;5014225;28;20205;-63
2022/12/07 00:50:21;;;;;;;21.30;17.73;;;;;;;3.64;100.00;96658.72;5014492;28;20209;-62
2022/12/07 00:52:48;;;;;;;21.40;18.47;;;;;;;3.63;100.00;96652.63;5014727;28;20204;-63
2022/12/07 00:55:14;;;;;;;22.63;18.83;;;;;;;3.65;100.00;96649.94;5014100;28;20625;-63
2022/12/07 00:57:41;;;;;;;21.33;18.50;;;;;;;3.63;100.00;96647.41;5013510;28;20215;-63
2022/12/07 01:00:09;;;;;;;22.17;18.43;;;;;;;3.62;100.00;96650.94;5014237;28;20208;-62
2022/12/07 01:02:37;;;;;;;20.53;18.20;;;;;;;3.67;100.00;96656.72;5014247;28;20236;-62
2022/12/07 01:05:04;;;;;;;22.57;18.67;;;;;;;3.72;100.00;96656.44;5014123;28;20218;-63
2022/12/07 01:07:30;;;;;;;23.23;18.63;;;;;;;3.70;100.00;96656.53;5013400;28;20224;-62
2022/12/07 01:09:57;;;;;;;22.23;18.40;;;;;;;3.70;100.00;96653.06;5014159;28;20215;-62
2022/12/07 01:12:24;;;;;;;21.07;18.20;;;;;;;3.75;100.00;96659.69;5014322;28;20239;-63
2022/12/07 01:14:50;;;;;;;21.23;18.13;;;;;;;3.78;100.00;96661.25;5013374;28;20212;-61
2022/12/07 01:17:17;;;;;;;21.97;17.83;;;;;;;3.81;100.00;96658.44;5013888;28;20224;-63
2022/12/07 01:19:45;;;;;;;20.90;18.60;;;;;;;3.80;100.00;96664.59;5014129;28;20204;-64
2022/12/07 01:22:11;;;;;;;22.03;18.20;;;;;;;3.77;100.00;96654.34;5013695;28;20200;-62
2022/12/07 01:24:39;;;;;;;23.33;18.60;;;;;;;3.77;100.00;96657.78;5013518;28;20227;-63
2022/12/07 01:27:05;;;;;;;21.30;18.23;;;;;;;3.73;100.00;96663.31;5013564;28;20243;-64
2022/12/07 01:29:32;;;;;;;23.40;18.23;;;;;;;3.83;100.00;96661.75;5013941;28;20212;-63
2022/12/07 01:31:59;;;;;;;24.30;19.20;;;;;;;3.85;100.00;96657.28;5013681;28;20224;-62
2022/12/07 01:34:25;;;;;;;21.30;18.87;;;;;;;3.93;100.00;96655.00;5013699;28;20204;-63
2022/12/07 01:36:53;;;;;;;24.43;19.20;;;;;;;3.91;100.00;96660.34;5013639;28;20220;-63
2022/12/07 01:39:19;;;;;;;22.70;19.13;;;;;;;3.90;100.00;96656.03;5013291;28;20201;-64
2022/12/07 01:41:46;;;;;;;24.47;20.00;;;;;;;3.95;100.00;96660.97;5013143;28;20215;-63
2022/12/07 01:44:18;;;;;;;22.50;18.60;;;;;;;3.93;100.00;96661.06;5013546;28;20197;-64
2022/12/07 01:46:47;;;;;;;22.57;18.63;;;;;;;3.95;100.00;96667.03;5003511;28;20211;-64
2022/12/07 01:49:18;;;;;;;22.20;19.63;;;;;;;3.96;100.00;96668.72;5013653;28;20197;-64
2022/12/07 01:51:45;;;;;;;22.50;18.63;;;;;;;3.97;100.00;96661.69;5013410;28;20203;-64
2022/12/07 01:54:16;;;;;;;21.63;17.83;;;;;;;3.99;100.00;96662.44;5016510;28;20533;-62
2022/12/07 01:56:44;;;;;;;21.80;18.53;;;;;;;3.95;100.00;96658.34;5022024;28;20222;-64
2022/12/07 01:59:11;;;;;;;23.80;18.87;;;;;;;3.99;100.00;96660.66;5025257;28;20208;-64
2022/12/07 02:01:37;;;;;;;23.30;18.80;;;;;;;4.01;100.00;96663.16;5018766;28;20207;-65
2022/12/07 02:04:04;;;;;;;20.10;17.83;;;;;;;4.06;100.00;96655.84;5013453;28;20208;-64
2022/12/07 02:06:31;;;;;;;22.07;18.90;;;;;;;4.08;100.00;96656.56;5013774;28;20212;-63
2022/12/07 02:08:58;;;;;;;22.83;18.90;;;;;;;4.07;100.00;96651.47;5013074;28;20523;-64
2022/12/07 02:11:26;;;;;;;20.87;18.30;;;;;;;4.08;100.00;96650.50;5012744;28;20663;-63
2022/12/07 02:13:52;;;;;;;25.47;20.37;;;;;;;4.05;100.00;96648.09;5015234;28;20240;-65
2022/12/07 02:16:28;;;;;;;23.90;19.60;;;;;;;4.05;100.00;96648.09;5015154;28;20656;-63
2022/12/07 02:19:01;;;;;;;22.00;19.03;;;;;;;4.06;100.00;96637.53;5018366;28;20215;-64
2022/12/07 02:21:34;;;;;;;21.87;19.07;;;;;;;4.07;100.00;96639.22;5019354;28;20200;-64
2022/12/07 02:24:15;;;;;;;22.40;18.60;;;;;;;4.06;100.00;96639.31;5019270;28;20204;-64
2022/12/07 02:27:14;;;;;;;24.17;19.30;;;;;;;4.09;100.00;96639.09;5021369;28;20228;-63
2022/12/07 02:29:47;;;;;;;22.13;18.50;;;;;;;4.09;100.00;96639.09;5021404;28;20556;-63
2022/12/07 02:32:17;;;;;;;21.57;18.10;;;;;;;4.08;100.00;96634.81;5015999;28;20635;-63
2022/12/07 02:34:49;;;;;;;21.50;18.67;;;;;;;4.08;100.00;96638.25;5012380;28;20656;-60
2022/12/07 02:37:27;;;;;;;21.63;18.73;;;;;;;3.99;100.00;96641.50;5013054;28;20592;-65
2022/12/07 02:39:56;;;;;;;20.00;17.20;;;;;;;4.00;100.00;96646.63;5012913;28;20203;-64
2022/12/07 02:42:26;;;;;;;20.03;17.37;;;;;;;4.02;100.00;96643.91;5011620;28;21364;-65
2022/12/07 02:44:54;;;;;;;19.73;17.63;;;;;;;4.00;100.00;96640.59;5014814;28;20216;-65
2022/12/07 02:47:22;;;;;;;21.20;17.13;;;;;;;4.02;100.00;96643.91;5015249;28;20207;-65
2022/12/07 02:49:50;;;;;;;20.30;17.33;;;;;;;4.00;99.65;96630.13;5014909;28;20633;-64
2022/12/07 02:52:17;;;;;;;20.97;16.93;;;;;;;4.05;100.00;96642.88;5013710;28;20208;-61
2022/12/07 02:54:44;;;;;;;20.40;17.57;;;;;;;4.05;100.00;96632.41;5015618;28;20772;-65
2022/12/07 02:57:32;;;;;;;20.03;16.43;;;;;;;4.06;99.52;96636.69;5017960;28;20676;-64
2022/12/07 03:00:04;;;;;;;18.73;16.07;;;;;;;4.08;99.34;96633.03;5016805;28;20212;-63
2022/12/07 03:02:36;;;;;;;19.53;16.23;;;;;;;4.05;99.57;96630.63;5011559;28;20215;-62
2022/12/07 03:05:13;;;;;;;22.53;17.40;;;;;;;4.01;99.70;96635.22;5011419;28;20195;-62
2022/12/07 03:07:44;;;;;;;19.47;15.93;;;;;;;4.07;98.80;96626.16;5012127;28;20204;-64
2022/12/07 03:10:15;;;;;;;19.10;16.33;;;;;;;4.12;98.10;96624.03;5011705;28;20636;-64
2022/12/07 03:12:46;;;;;;;19.37;16.57;;;;;;;4.07;98.32;96620.91;5011660;28;20211;-63
2022/12/07 03:15:18;;;;;;;19.43;16.40;;;;;;;4.10;98.55;96610.22;5011580;28;20220;-65
2022/12/07 03:17:46;;;;;;;18.37;16.40;;;;;;;4.10;98.52;96615.47;5011461;28;20251;-62
2022/12/07 03:20:15;;;;;;;18.83;16.63;;;;;;;4.12;98.40;96620.56;5011281;28;20204;-64
2022/12/07 03:22:43;;;;;;;17.87;15.93;;;;;;;4.13;97.33;96619.66;5015918;28;20200;-64
2022/12/07 03:25:12;;;;;;;18.20;15.67;;;;;;;4.15;97.38;96622.97;5014979;28;20221;-63
2022/12/07 03:27:42;;;;;;;18.97;15.80;;;;;;;4.14;97.40;96611.69;5016355;28;20204;-63
2022/12/07 03:30:10;;;;;;;18.10;15.77;;;;;;;4.16;97.39;96614.19;5015573;28;20295;-64
2022/12/07 03:32:42;;;;;;;17.83;15.63;;;;;;;4.15;96.50;96613.34;5016972;28;20211;-65
2022/12/07 03:35:15;;;;;;;18.27;15.73;;;;;;;4.17;96.09;96615.88;5014202;28;20214;-64
2022/12/07 03:37:46;;;;;;;17.17;15.30;;;;;;;4.16;96.36;96614.19;5013404;28;20724;-64
2022/12/07 03:40:15;;;;;;;17.60;15.13;;;;;;;4.13;97.29;96614.41;5014826;28;20212;-64
2022/12/07 03:42:43;;;;;;;17.40;15.53;;;;;;;4.14;96.51;96614.31;5015316;28;20291;-63
2022/12/07 03:45:11;;;;;;;17.97;15.60;;;;;;;4.17;95.85;96610.66;5018706;28;20215;-62
2022/12/07 03:47:45;;;;;;;18.90;15.67;;;;;;;4.11;95.23;96616.31;5012245;28;20201;-64
2022/12/07 03:50:17;;;;;;;17.40;15.20;;;;;;;4.10;96.14;96619.84;5011000;28;20200;-64
2022/12/07 03:52:46;;;;;;;18.57;14.97;;;;;;;4.14;95.24;96611.69;5011611;28;20196;-64
2022/12/07 03:55:17;;;;;;;17.90;15.30;;;;;;;4.11;95.06;96618.91;5011649;28;20220;-64
2022/12/07 03:57:44;;;;;;;18.20;15.60;;;;;;;4.07;97.08;96614.84;5011198;28;20215;-64
2022/12/07 04:00:12;;;;;;;16.40;14.60;;;;;;;4.09;96.69;96620.78;5011155;28;20208;-64
2022/12/07 04:02:40;;;;;;;17.60;15.53;;;;;;;4.06;95.63;96624.47;5010911;28;20633;-64
2022/12/07 04:05:08;;;;;;;18.83;15.57;;;;;;;4.06;96.20;96621.84;5011770;28;20204;-65
2022/12/07 04:07:34;;;;;;;20.10;16.17;;;;;;;4.08;96.36;96621.72;5011279;28;20205;-63
2022/12/07 04:10:01;;;;;;;17.90;15.80;;;;;;;4.08;95.94;96621.72;5011553;28;20196;-65
2022/12/07 04:12:27;;;;;;;16.97;15.10;;;;;;;4.05;96.55;96621.94;5032673;28;20254;-64
2022/12/07 04:14:54;;;;;;;19.37;15.37;;;;;;;4.06;96.06;96623.63;5036680;28;20196;-64
2022/12/07 04:17:20;;;;;;;19.40;15.17;;;;;;;4.05;96.99;96624.56;5016090;28;20242;-64
2022/12/07 04:19:48;;;;;;;19.20;15.70;;;;;;;4.03;97.07;96622.06;5031927;28;20486;-64
2022/12/07 04:22:15;;;;;;;21.37;16.80;;;;;;;4.02;96.47;96620.38;5039299;28;20180;-64
2022/12/07 04:24:43;;;;;;;19.47;15.73;;;;;;;4.01;98.25;96622.16;5031793;28;20628;-65
2022/12/07 04:27:09;;;;;;;19.50;15.97;;;;;;;4.05;97.27;96612.31;5023107;28;20216;-65
2022/12/07 04:29:35;;;;;;;19.00;16.40;;;;;;;4.08;97.75;96613.88;5024446;28;20200;-65
2022/12/07 04:32:03;;;;;;;18.00;14.83;;;;;;;4.05;97.60;96612.31;5017940;28;20223;-65
2022/12/07 04:34:30;;;;;;;17.77;15.03;;;;;;;4.03;98.24;96614.22;5015071;28;20299;-64
2022/12/07 04:36:58;;;;;;;20.03;15.80;;;;;;;4.06;97.89;96618.38;5018602;28;20228;-65
2022/12/07 04:39:27;;;;;;;19.73;15.80;;;;;;;4.03;98.38;96613.38;5015353;28;20681;-65
2022/12/07 04:41:54;;;;;;;19.73;15.50;;;;;;;4.04;98.49;96620.28;5016606;28;20207;-64
2022/12/07 04:44:21;;;;;;;18.00;14.70;;;;;;;4.03;96.75;96608.97;5016781;28;20544;-65
2022/12/07 04:46:48;;;;;;;18.13;15.23;;;;;;;3.99;97.85;96616.19;5016862;28;20200;-65
2022/12/07 04:49:15;;;;;;;17.87;14.97;;;;;;;3.97;99.17;96607.59;5016002;28;20204;-63
2022/12/07 04:51:44;;;;;;;19.10;15.60;;;;;;;3.99;98.96;96613.56;5015346;28;20197;-64
2022/12/07 04:54:12;;;;;;;18.47;14.93;;;;;;;3.97;99.44;96615.44;5015400;28;20204;-64
2022/12/07 04:56:39;;;;;;;17.87;15.13;;;;;;;3.97;98.77;96615.44;5013918;28;20225;-64
2022/12/07 04:59:06;;;;;;;19.53;16.23;;;;;;;3.94;98.43;96620.88;5014430;28;20197;-64
2022/12/07 05:01:32;;;;;;;19.43;15.47;;;;;;;3.98;98.22;96624.13;5013814;28;20208;-63
2022/12/07 05:03:59;;;;;;;18.47;15.80;;;;;;;3.94;99.08;96620.88;5014379;28;20209;-62
2022/12/07 05:06:27;;;;;;;18.93;15.83;;;;;;;3.93;98.83;96624.44;5014599;28;20271;-64
2022/12/07 05:08:56;;;;;;;17.40;15.33;;;;;;;3.94;100.00;96620.88;5014024;28;20228;-64
2022/12/07 05:11:39;;;;;;;19.90;15.37;;;;;;;3.92;99.95;96621.94;5013996;28;20208;-64
2022/12/07 05:14:08;;;;;;;18.77;15.10;;;;;;;3.97;99.73;96622.44;5014432;28;20212;-64
2022/12/07 05:16:34;;;;;;;19.20;15.77;;;;;;;4.01;97.69;96613.44;5014032;28;20239;-63
2022/12/07 05:19:02;;;;;;;20.20;16.17;;;;;;;3.98;97.91;96614.50;5014162;28;20283;-64
2022/12/07 05:21:29;;;;;;;21.20;16.90;;;;;;;3.93;99.13;96613.97;5013997;28;20212;-64
2022/12/07 05:23:55;;;;;;;21.70;16.50;;;;;;;3.96;100.00;96613.78;5013618;28;20216;-64
2022/12/07 05:26:23;;;;;;;18.33;15.60;;;;;;;3.96;99.30;96608.56;5013353;28;20818;-64
2022/12/07 05:28:56;;;;;;;20.80;16.50;;;;;;;3.94;99.01;96606.97;5014309;28;20217;-64
2022/12/07 05:31:23;;;;;;;18.60;15.30;;;;;;;3.98;99.14;96608.44;5014371;28;20204;-64
2022/12/07 05:33:50;;;;;;;22.37;17.00;;;;;;;3.95;100.00;96612.09;5012535;28;20204;-63
2022/12/07 05:36:17;;;;;;;20.73;17.40;;;;;;;3.95;99.92;96609.50;5014194;28;20200;-63
2022/12/07 05:38:46;;;;;;;19.70;15.63;;;;;;;3.94;100.00;96615.66;5013585;28;20645;-62
2022/12/07 05:44:02;;;;;;;21.10;16.73;;;;;;;3.94;99.54;96614.81;5013455;28;20219;-64
2022/12/07 05:46:28;;;;;;;21.17;16.87;;;;;;;3.94;100.00;96613.03;5003739;28;20200;-63
2022/12/07 05:48:55;;;;;;;21.07;16.70;;;;;;;3.95;99.90;96616.50;5014354;28;20219;-64
2022/12/07 05:51:22;;;;;;;23.07;17.27;;;;;;;3.96;100.00;96618.19;5014185;28;20308;-63
2022/12/07 05:53:51;;;;;;;19.63;16.53;;;;;;;3.96;98.52;96623.41;5013973;28;20212;-64
2022/12/07 05:56:18;;;;;;;21.93;16.40;;;;;;;3.96;99.88;96616.41;5013513;28;20632;-63
2022/12/07 06:01:32;;;;;;;19.07;15.97;;;;;;;4.00;100.00;96625.69;5022693;28;20271;-65
2022/12/07 06:03:58;;;;;;;19.63;16.47;;;;;;;4.01;100.00;96623.91;5020884;28;20204;-63
2022/12/07 06:06:25;;;;;;;21.70;17.40;;;;;;;4.01;98.18;96624.75;5019026;28;20204;-65
2022/12/07 06:08:52;;;;;;;20.20;16.77;;;;;;;4.06;99.05;96618.38;5023189;28;20203;-64
2022/12/07 06:14:03;;;;;;;22.43;17.00;;;;;;;4.01;100.00;96616.91;5015857;28;20276;-63
2022/12/07 06:16:31;;;;;;;20.23;16.63;;;;;;;3.97;100.00;96617.22;5015421;28;20262;-65
2022/12/07 06:18:58;;;;;;;21.03;16.70;;;;;;;4.06;100.00;96626.22;5017509;28;20272;-64
2022/12/07 06:21:26;;;;;;;20.97;16.60;;;;;;;4.05;100.00;96630.63;5013290;28;20193;-64
2022/12/07 06:23:53;;;;;;;19.10;17.07;;;;;;;4.03;100.00;96619.44;5012549;28;20224;-64
2022/12/07 06:26:19;;;;;;;20.07;16.07;;;;;;;4.01;100.00;96619.53;5012559;28;20236;-63
2022/12/07 06:28:46;;;;;;;21.20;17.63;;;;;;;4.04;100.00;96615.84;5012382;28;20206;-63
2022/12/07 06:31:13;;;;;;;21.63;17.17;;;;;;;4.04;100.00;96622.91;5013039;28;20540;-61
2022/12/07 06:33:41;;;;;;;20.43;17.10;;;;;;;4.08;100.00;96621.72;5012954;28;20212;-60
2022/12/07 06:36:08;;;;;;;19.80;16.80;;;;;;;4.14;100.00;96626.56;5012980;28;20235;-60
2022/12/07 06:38:34;;;;;;;19.70;17.23;;;;;;;4.14;100.00;96634.41;5011896;28;20224;-61
2022/12/07 06:41:01;;;;;;;20.40;17.83;;;;;;;4.21;100.00;96627.81;5011515;28;20557;-59
2022/12/07 06:43:27;;;;;;;21.77;17.37;;;;;;;4.24;99.83;96633.69;5012631;28;20204;-60
2022/12/07 06:45:54;;;;;;;21.53;16.97;;;;;;;4.24;99.60;96633.69;5012783;28;20242;-60
2022/12/07 06:48:20;;;;;;;20.63;16.57;;;;;;;4.26;100.00;96636.19;5012578;28;20196;-65
2022/12/07 06:50:49;;;;;;;22.30;17.17;;;;;;;4.26;99.02;96630.94;5012287;28;20204;-62
2022/12/07 06:53:15;;;;;;;25.97;18.53;;;;;;;4.17;98.21;96637.66;5011736;28;20223;-63
2022/12/07 06:55:43;;;;;;;21.73;16.77;;;;;;;4.20;98.10;96634.81;5026150;28;20204;-64
2022/12/07 06:58:10;;;;;;;20.67;17.40;;;;;;;4.23;97.05;96636.38;5023231;28;20220;-64
2022/12/07 07:00:36;;;;;;;21.47;16.90;;;;;;;4.15;98.63;96636.06;5020553;28;20215;-64
2022/12/07 07:03:03;;;;;;;20.20;16.40;;;;;;;4.12;100.00;96631.03;5018928;28;20204;-64
2022/12/07 07:05:30;;;;;;;20.70;16.87;;;;;;;4.12;100.00;96631.03;5014501;28;20218;-64
2022/12/07 07:07:58;;;;;;;24.87;19.27;;;;;;;4.12;100.00;96633.66;5012829;28;20215;-63
2022/12/07 07:10:24;;;;;;;23.80;18.40;;;;;;;4.08;100.00;96629.56;5012285;28;20683;-63
2022/12/07 07:12:51;;;;;;;25.97;18.43;;;;;;;4.11;100.00;96634.63;5012287;28;20213;-63
2022/12/07 07:15:18;;;;;;;28.80;20.27;;;;;;;4.06;100.00;96629.69;5012457;28;20430;-64
2022/12/07 07:17:44;;;;;;;33.00;22.27;;;;;;;4.05;100.00;96635.00;5011789;28;20224;-64
2022/12/07 07:20:12;;;;;;;35.43;22.20;;;;;;;4.08;100.00;96629.56;5012512;28;20204;-64
2022/12/07 07:22:39;;;;;;;37.80;24.23;;;;;;;4.03;100.00;96634.28;5011886;28;20215;-64
2022/12/07 07:25:07;;;;;;;37.50;22.90;;;;;;;4.03;100.00;96639.53;5012409;28;20756;-63
2022/12/07 07:27:34;;;;;;;34.97;22.70;;;;;;;4.02;100.00;96633.44;5013914;28;20193;-64
2022/12/07 07:30:00;;;;;;;33.90;22.83;;;;;;;4.03;100.00;96634.28;5013252;28;20648;-62
2022/12/07 07:32:27;;;;;;;32.33;21.83;;;;;;;3.99;100.00;96638.91;5012487;28;20208;-64
2022/12/07 07:34:54;;;;;;;30.30;21.27;;;;;;;3.97;100.00;96641.59;5011738;28;20215;-63
2022/12/07 07:37:20;;;;;;;36.60;22.47;;;;;;;3.94;100.00;96644.44;5011885;28;20577;-64
2022/12/07 07:39:47;;;;;;;31.67;22.07;;;;;;;3.93;100.00;96649.78;5012065;28;20223;-64
2022/12/07 07:42:15;;;;;;;31.80;21.43;;;;;;;3.98;100.00;96645.91;5011987;28;20197;-64
2022/12/07 07:44:42;;;;;;;31.70;22.73;;;;;;;3.97;100.00;96646.00;5012215;28;20212;-63
2022/12/07 07:47:08;;;;;;;32.10;20.87;;;;;;;3.98;100.00;96650.28;5011786;28;20205;-64
2022/12/07 07:49:35;;;;;;;32.17;21.27;;;;;;;3.97;100.00;96646.00;5014433;28;21367;-64
2022/12/07 07:52:01;;;;;;;31.57;22.40;;;;;;;3.98;100.00;96656.38;5016033;28;20209;-64
2022/12/07 07:54:28;;;;;;;30.93;21.90;;;;;;;3.85;100.00;96650.28;5018898;28;20219;-64
2022/12/07 07:56:55;;;;;;;31.30;21.33;;;;;;;3.83;100.00;96646.91;5020046;28;20222;-64
2022/12/07 07:59:23;;;;;;;28.53;21.23;;;;;;;3.84;100.00;96651.22;5017966;28;20223;-64
2022/12/07 08:01:49;;;;;;;33.80;20.77;;;;;;;3.81;100.00;96656.66;5018642;28;20235;-65
2022/12/07 08:04:16;;;;;;;30.53;20.97;;;;;;;3.82;100.00;96653.09;5019855;28;20196;-65
2022/12/07 08:06:43;;;;;;;30.23;21.43;;;;;;;3.84;100.00;96653.00;5019673;28;20209;-64
2022/12/07 08:09:11;;;;;;;28.77;20.47;;;;;;;3.87;100.00;96653.63;5015659;28;20208;-64
2022/12/07 08:11:38;;;;;;;30.63;21.13;;;;;;;3.83;100.00;96660.00;5015940;28;20624;-64
2022/12/07 08:14:04;;;;;;;29.87;20.80;;;;;;;3.82;100.00;96658.34;5016031;28;20200;-64
2022/12/07 08:16:32;;;;;;;28.90;21.27;;;;;;;3.78;100.00;96662.09;5015351;28;20219;-64
2022/12/07 08:18:59;;;;;;;27.80;20.57;;;;;;;3.86;100.00;96666.81;5015159;28;20232;-64
2022/12/07 08:21:25;;;;;;;25.90;19.97;;;;;;;3.85;100.00;96667.75;5018418;28;20211;-64
2022/12/07 08:23:52;;;;;;;27.57;21.20;;;;;;;3.79;100.00;96663.75;5020972;28;20541;-62
2022/12/07 08:26:18;;;;;;;26.43;20.13;;;;;;;3.81;100.00;96666.28;5018944;28;20232;-64
2022/12/07 08:28:45;;;;;;;27.60;20.43;;;;;;;3.86;100.00;96665.03;5020951;28;20208;-63
2022/12/07 08:31:15;;;;;;;26.30;20.97;;;;;;;3.81;100.00;96672.34;5022791;28;20246;-64
2022/12/07 08:33:43;;;;;;;26.13;20.63;;;;;;;3.85;100.00;96671.22;5022322;28;20268;-64
2022/12/07 08:36:11;;;;;;;28.50;21.10;;;;;;;3.86;100.00;96669.44;5022849;28;20208;-64
2022/12/07 08:38:39;;;;;;;27.13;20.33;;;;;;;3.89;100.00;96672.69;5014676;28;20224;-64
2022/12/07 08:41:06;;;;;;;27.03;19.97;;;;;;;3.86;100.00;96672.88;5015224;28;20211;-64
2022/12/07 08:43:33;;;;;;;27.47;20.03;;;;;;;3.90;100.00;96669.13;5015034;28;20219;-65
2022/12/07 08:46:06;;;;;;;33.57;22.83;;;;;;;3.95;100.00;96676.66;5015281;28;20217;-64
2022/12/07 08:48:34;;;;;;;32.50;23.03;;;;;;;3.91;100.00;96668.19;5014772;28;20227;-62
2022/12/07 08:51:02;;;;;;;32.77;20.97;;;;;;;3.90;100.00;96671.72;5015222;28;20209;-63
2022/12/07 08:53:28;;;;;;;32.27;22.80;;;;;;;3.92;100.00;96675.09;5014201;28;20282;-63
2022/12/07 08:55:57;;;;;;;35.00;22.63;;;;;;;3.94;100.00;96673.19;5015130;28;20239;-64
2022/12/07 08:58:24;;;;;;;27.93;21.10;;;;;;;4.00;100.00;96664.94;5014648;28;20232;-63
2022/12/07 09:00:52;;;;;;;31.53;22.50;;;;;;;3.95;100.00;96669.66;5013774;28;20208;-62
2022/12/07 09:03:19;;;;;;;27.10;20.83;;;;;;;3.97;100.00;96667.75;5014280;28;20215;-64
2022/12/07 09:05:45;;;;;;;27.97;21.00;;;;;;;3.93;100.00;96666.28;5014450;28;20262;-63
2022/12/07 09:08:13;;;;;;;29.23;20.90;;;;;;;3.96;100.00;96678.34;5014722;28;20208;-63
2022/12/07 09:10:41;;;;;;;30.13;21.23;;;;;;;4.00;100.00;96672.78;5014061;28;20536;-64
2022/12/07 09:13:07;;;;;;;30.40;21.53;;;;;;;3.96;100.00;96680.97;5014446;28;20213;-64
2022/12/07 09:15:34;;;;;;;28.83;20.60;;;;;;;3.98;100.00;96674.69;5014655;28;20223;-63
2022/12/07 09:18:01;;;;;;;31.53;21.53;;;;;;;3.97;100.00;96680.84;5013799;28;20646;-64
2022/12/07 09:20:27;;;;;;;30.80;21.30;;;;;;;3.98;100.00;96685.16;5013965;28;20205;-64
2022/12/07 09:22:54;;;;;;;29.77;21.83;;;;;;;4.00;100.00;96685.88;5014108;28;20208;-64
2022/12/07 09:25:22;;;;;;;31.07;22.00;;;;;;;3.99;100.00;96686.00;5013339;28;20253;-64
2022/12/07 09:27:48;;;;;;;28.33;21.07;;;;;;;4.04;100.00;96689.13;5014273;28;20764;-64
2022/12/07 09:30:15;;;;;;;31.73;22.33;;;;;;;4.07;100.00;96685.47;5025018;28;20201;-64
2022/12/07 09:32:42;;;;;;;28.03;21.17;;;;;;;4.07;100.00;96688.94;5028442;28;20272;-65
2022/12/07 09:35:09;;;;;;;31.97;22.67;;;;;;;4.06;100.00;96686.41;5027125;28;20208;-64
2022/12/07 09:37:36;;;;;;;32.30;22.83;;;;;;;4.07;100.00;96688.09;5018961;28;20258;-64
2022/12/07 09:40:03;;;;;;;31.93;21.37;;;;;;;4.08;100.00;96689.75;5015773;28;20220;-63
2022/12/07 09:42:35;;;;;;;33.53;22.73;;;;;;;4.11;100.00;96689.56;5014335;28;20212;-64
2022/12/07 09:45:03;;;;;;;32.30;22.57;;;;;;;4.10;100.00;96682.66;5012945;28;20268;-64
2022/12/07 09:47:30;;;;;;;32.77;23.33;;;;;;;4.11;100.00;96686.97;5013295;28;20205;-62
2022/12/07 09:50:04;;;;;;;34.20;22.57;;;;;;;4.21;100.00;96680.16;5013166;28;20196;-65
2022/12/07 09:52:31;;;;;;;30.93;22.07;;;;;;;4.24;100.00;96682.56;5013280;28;20199;-64
2022/12/07 09:54:58;;;;;;;35.90;23.97;;;;;;;4.22;100.00;96681.81;5013791;28;20384;-64
2022/12/07 09:57:29;;;;;;;31.57;22.23;;;;;;;4.26;100.00;96667.59;5012689;28;20205;-63
2022/12/07 09:59:57;;;;;;;34.40;21.97;;;;;;;4.32;100.00;96667.19;5013297;28;20204;-64
2022/12/07 10:02:29;;;;;;;36.43;24.37;;;;;;;4.37;100.00;96668.53;5013291;28;20626;-64
2022/12/07 10:04:56;;;;;;;32.53;22.50;;;;;;;4.44;100.00;96672.41;5012953;28;20219;-64
2022/12/07 10:07:23;;;;;;;28.27;21.67;;;;;;;4.40;100.00;96670.94;5014220;28;20211;-64
2022/12/07 10:09:49;;;;;;;37.03;22.57;;;;;;;4.40;100.00;96670.94;5013351;28;20663;-64
2022/12/07 10:12:16;;;;;;;29.93;22.47;;;;;;;4.44;100.00;96666.34;5012165;28;20205;-65
2022/12/07 10:14:55;;;;;;;30.60;23.20;;;;;;;4.47;100.00;96663.50;5014359;28;20574;-65
2022/12/07 10:17:48;;;;;;;28.63;21.60;;;;;;;4.49;100.00;96665.09;5014343;28;20200;-62
2022/12/07 10:20:21;;;;;;;31.47;21.97;;;;;;;4.56;100.00;96665.50;5019502;28;20213;-64
2022/12/07 10:23:02;;;;;;;33.83;22.73;;;;;;;4.57;100.00;96656.69;5027150;28;20192;-65
2022/12/07 10:25:32;;;;;;;31.23;22.43;;;;;;;4.64;100.00;96660.56;5017151;28;20343;-64
2022/12/07 10:28:00;;;;;;;32.63;23.83;;;;;;;4.68;100.00;96651.53;5012998;28;20193;-64
2022/12/07 10:30:27;;;;;;;31.20;22.20;;;;;;;4.71;100.00;96647.91;5012573;28;20208;-64
2022/12/07 10:32:55;;;;;;;34.67;23.63;;;;;;;4.73;100.00;96643.38;5012909;28;21232;-64
2022/12/07 10:35:25;;;;;;;29.53;21.27;;;;;;;4.72;100.00;96642.53;5012617;28;20212;-63
2022/12/07 10:37:52;;;;;;;27.17;20.77;;;;;;;4.65;100.00;96633.44;5013047;28;20212;-63
2022/12/07 10:40:31;;;;;;;25.80;20.10;;;;;;;4.75;100.00;96631.84;5012875;28;20200;-64
2022/12/07 10:43:17;;;;;;;32.57;22.00;;;;;;;4.77;100.00;96622.09;5012798;28;20295;-63
2022/12/07 10:46:25;;;;;;;29.57;21.23;;;;;;;4.80;100.00;96616.63;5012546;28;20208;-63
2022/12/07 10:49:00;;;;;;;25.80;19.60;;;;;;;4.90;100.00;96616.81;4999847;28;20196;-63
2022/12/07 10:51:32;;;;;;;27.93;19.67;;;;;;;4.94;100.00;96606.03;5012397;28;20196;-63
2022/12/07 10:54:08;;;;;;;24.47;17.33;;;;;;;4.97;100.00;96608.41;5011923;28;20208;-61
2022/12/07 10:56:47;;;;;;;22.00;16.50;;;;;;;4.93;100.00;96606.13;5015586;28;20215;-62
2022/12/07 10:59:29;;;;;;;19.83;16.10;;;;;;;4.96;100.00;96604.09;5012614;28;20220;-62
2022/12/07 11:02:00;;;;;;;19.90;15.87;;;;;;;4.95;100.00;96601.63;5012531;28;20232;-63
2022/12/07 11:04:34;;;;;;;21.80;17.47;;;;;;;4.93;100.00;96600.88;5012534;28;20315;-63
2022/12/07 11:07:06;;;;;;;21.20;16.93;;;;;;;4.88;100.00;96597.75;5012167;28;20197;-62
2022/12/07 11:09:56;;;;;;;22.33;17.10;;;;;;;4.87;100.00;96596.91;5011885;28;20520;-62
2022/12/07 11:12:32;;;;;;;22.73;16.83;;;;;;;4.93;100.00;96591.22;5008022;28;20212;-63
2022/12/07 11:15:02;;;;;;;21.33;17.63;;;;;;;4.89;100.00;96595.00;5012217;28;20222;-63
2022/12/07 11:17:36;;;;;;;21.20;17.40;;;;;;;4.89;100.00;96589.78;5012392;28;20310;-63
2022/12/07 11:20:15;;;;;;;19.47;16.17;;;;;;;4.91;100.00;96587.91;5011629;28;20231;-63
2022/12/07 11:22:46;;;;;;;18.37;16.03;;;;;;;4.95;100.00;96591.13;5011653;28;20219;-63
2022/12/07 11:25:21;;;;;;;18.30;15.73;;;;;;;4.90;100.00;96586.22;5011664;28;20243;-64
2022/12/07 11:27:51;;;;;;;20.90;16.10;;;;;;;4.92;100.00;96579.06;5011561;28;20200;-63
2022/12/07 11:30:21;;;;;;;19.77;15.73;;;;;;;4.95;100.00;96573.63;5012106;28;20211;-64
2022/12/07 11:33:03;;;;;;;18.23;15.73;;;;;;;4.99;100.00;96569.00;5011520;28;20286;-64
2022/12/07 11:35:38;;;;;;;21.77;16.50;;;;;;;5.00;100.00;96570.66;5012172;28;20300;-64